createdAt,value
2019-05-06T00:00:59.750Z,8.23
2019-05-06T00:06:06.703Z,20.72
2019-05-06T00:11:14.210Z,10.43
2019-05-06T00:19:13.986Z,12.98
2019-05-06T00:24:23.892Z,11.43
2019-05-06T00:29:34.914Z,10.28
2019-05-06T00:34:43.657Z,15.00
2019-05-06T00:45:15.579Z,11.20
2019-05-06T00:50:23.898Z,13.88
2019-05-06T00:55:33.632Z,9.45
2019-05-06T01:04:59.525Z,17.35
2019-05-06T01:10:06.928Z,12.90
2019-05-06T01:15:17.252Z,18.73
2019-05-06T01:20:24.747Z,13.08
2019-05-06T01:25:34.445Z,13.45
2019-05-06T01:30:40.717Z,10.95
2019-05-06T01:35:47.480Z,13.60
2019-05-06T01:41:29.215Z,14.53
2019-05-06T01:51:43.765Z,14.55
2019-05-06T01:56:51.415Z,12.03
2019-05-06T02:02:01.109Z,17.98
2019-05-06T02:07:07.399Z,20.37
2019-05-06T02:12:14.442Z,10.75
2019-05-06T02:17:23.344Z,12.73
2019-05-06T02:22:44.293Z,11.60
2019-05-06T02:27:51.424Z,11.90
2019-05-06T02:33:16.350Z,15.68
2019-05-06T02:38:32.669Z,15.35
2019-05-06T02:43:34.748Z,16.30
2019-05-06T02:48:54.390Z,15.15
2019-05-06T02:54:03.280Z,15.63
2019-05-06T02:59:12.573Z,19.70
2019-05-06T03:09:24.478Z,13.98
2019-05-06T03:14:34.464Z,20.25
2019-05-06T03:20:59.280Z,14.30
2019-05-06T03:26:07.050Z,16.90
2019-05-06T03:31:16.587Z,14.95
2019-05-06T03:36:27.310Z,12.82
2019-05-06T03:41:33.910Z,13.90
2019-05-06T03:47:09.252Z,13.00
2019-05-06T03:52:17.650Z,17.12
2019-05-06T03:57:25.425Z,20.20
2019-05-06T04:02:33.712Z,23.83
2019-05-06T04:07:45.465Z,15.55
2019-05-06T04:12:53.436Z,19.45
2019-05-06T04:18:04.294Z,20.92
2019-05-06T04:23:23.450Z,37.78
2019-05-06T04:28:34.124Z,20.55
2019-05-06T04:33:41.511Z,18.73
2019-05-06T04:38:48.443Z,28.77
2019-05-06T04:43:55.435Z,20.57
2019-05-06T04:49:04.021Z,15.55
2019-05-06T04:54:13.442Z,30.24
2019-05-06T04:59:23.242Z,17.30
2019-05-06T05:04:32.754Z,18.52
2019-05-06T05:09:38.699Z,18.15
2019-05-06T05:14:56.251Z,18.73
2019-05-06T05:20:04.224Z,24.70
2019-05-06T05:25:12.187Z,20.08
2019-05-06T05:30:19.436Z,22.75
2019-05-06T05:35:26.557Z,16.17
2019-05-06T05:40:34.453Z,23.85
2019-05-06T06:01:13.433Z,23.62
2019-05-06T06:06:22.193Z,21.17
2019-05-06T06:11:34.918Z,16.45
2019-05-06T06:16:57.246Z,23.57
2019-05-06T06:22:08.254Z,17.23
2019-05-06T06:27:17.062Z,18.25
2019-05-06T06:32:29.442Z,14.18
2019-05-06T06:37:52.450Z,23.25
2019-05-06T06:43:07.246Z,16.48
2019-05-06T06:48:15.035Z,9.88
2019-05-06T06:53:22.436Z,15.25
2019-05-06T06:58:35.298Z,17.95
2019-05-06T07:08:57.224Z,13.10
2019-05-06T07:14:05.437Z,13.78
2019-05-06T07:19:14.600Z,12.68
2019-05-06T07:24:22.846Z,16.05
2019-05-06T07:29:32.633Z,16.20
2019-05-06T07:34:39.426Z,14.70
2019-05-06T07:39:46.433Z,12.45
2019-05-06T07:45:22.012Z,13.78
2019-05-06T07:50:33.087Z,20.73
2019-05-06T07:55:42.388Z,15.18
2019-05-06T08:00:49.559Z,5.53
2019-05-06T08:05:58.816Z,6.00
2019-05-06T08:11:05.540Z,13.80
2019-05-06T08:16:13.257Z,12.95
2019-05-06T08:21:23.358Z,11.05
2019-05-06T08:26:32.303Z,13.20
2019-05-06T08:31:39.575Z,9.93
2019-05-06T08:37:12.042Z,15.48
2019-05-06T08:42:19.424Z,8.88
2019-05-06T08:47:27.469Z,9.10
2019-05-06T08:52:53.263Z,6.58
2019-05-06T09:00:12.744Z,10.75
2019-05-06T09:05:19.436Z,7.03
2019-05-06T09:10:26.460Z,6.42
2019-05-06T09:15:33.445Z,7.50
2019-05-06T09:20:40.564Z,8.35
2019-05-06T09:25:47.422Z,10.18
2019-05-06T09:31:02.107Z,10.90
2019-05-06T09:36:09.565Z,8.90
2019-05-06T09:41:16.447Z,4.87
2019-05-06T09:46:23.578Z,6.40
2019-05-06T09:51:32.505Z,6.33
2019-05-06T09:57:02.444Z,13.38
2019-05-06T10:02:12.376Z,11.88
2019-05-06T10:07:19.435Z,11.22
2019-05-06T10:12:26.449Z,9.28
2019-05-06T10:17:33.576Z,20.50
2019-05-06T10:22:42.901Z,10.05
2019-05-06T10:27:52.481Z,7.72
2019-05-06T10:33:02.083Z,5.70
2019-05-06T10:38:38.906Z,5.12
2019-05-06T10:44:12.285Z,6.70
2019-05-06T10:49:22.557Z,5.28
2019-05-06T10:59:35.405Z,6.28
2019-05-06T11:04:42.652Z,7.03
2019-05-06T11:09:49.581Z,8.30
2019-05-06T11:14:56.541Z,9.38
2019-05-06T11:20:06.548Z,13.28
2019-05-06T11:25:12.430Z,5.65
2019-05-06T11:30:44.295Z,2.40
2019-05-06T11:36:16.273Z,10.40
2019-05-06T11:41:23.567Z,8.80
2019-05-06T11:46:32.248Z,6.95
2019-05-06T11:51:39.440Z,9.25
2019-05-06T11:56:50.680Z,4.78
2019-05-06T12:02:02.600Z,8.48
2019-05-06T12:07:11.690Z,4.40
2019-05-06T12:12:18.581Z,7.37
2019-05-06T12:17:25.442Z,6.95
2019-05-06T12:22:38.611Z,10.23
2019-05-06T12:27:45.455Z,5.20
2019-05-06T12:33:10.247Z,7.62
2019-05-06T12:38:30.276Z,4.70
2019-05-06T12:43:49.354Z,6.58
2019-05-06T12:48:56.449Z,14.93
2019-05-06T12:54:03.719Z,10.78
2019-05-06T12:59:12.854Z,12.53
2019-05-06T13:04:42.490Z,10.50
2019-05-06T13:09:28.635Z,7.67
2019-05-06T13:14:37.256Z,8.25
2019-05-06T13:19:44.426Z,5.47
2019-05-06T13:24:52.043Z,5.05
2019-05-06T13:30:02.011Z,6.28
2019-05-06T13:35:09.022Z,7.70
2019-05-06T13:40:16.692Z,6.45
2019-05-06T13:45:23.615Z,7.55
2019-05-06T13:50:32.743Z,10.68
2019-05-06T13:55:39.595Z,9.45
2019-05-06T14:00:47.341Z,8.43
2019-05-06T14:05:54.434Z,6.17
2019-05-06T14:11:02.937Z,10.58
2019-05-06T14:16:12.891Z,8.35
2019-05-06T14:21:19.574Z,3.92
2019-05-06T14:26:33.271Z,5.37
2019-05-06T14:31:44.379Z,6.58
2019-05-06T14:36:53.411Z,7.62
2019-05-06T14:42:02.405Z,5.20
2019-05-06T14:47:18.255Z,3.50
2019-05-06T14:57:32.286Z,9.40
2019-05-06T15:02:39.552Z,4.80
2019-05-06T15:12:53.572Z,4.55
2019-05-06T15:18:02.878Z,6.37
2019-05-06T15:23:09.912Z,5.50
2019-05-06T15:29:18.617Z,4.00
2019-05-06T15:34:38.653Z,6.30
2019-05-06T15:39:45.457Z,4.03
2019-05-06T15:44:52.449Z,9.48
2019-05-06T15:49:59.589Z,6.22
2019-05-06T15:55:07.027Z,4.80
2019-05-06T16:00:18.314Z,9.50
2019-05-06T16:05:26.670Z,10.78
2019-05-06T16:10:50.339Z,9.85
2019-05-06T16:15:42.582Z,10.53
2019-05-06T16:20:49.477Z,8.75
2019-05-06T16:25:56.632Z,7.83
2019-05-06T16:31:05.416Z,9.30
2019-05-06T16:36:13.197Z,10.23
2019-05-06T16:41:22.451Z,7.92
2019-05-06T16:46:29.503Z,4.97
2019-05-06T16:51:36.600Z,6.70
2019-05-06T16:57:02.382Z,5.47
2019-05-06T17:02:18.259Z,8.93
2019-05-06T17:12:32.287Z,9.78
2019-05-06T17:22:46.925Z,4.60
2019-05-06T17:27:54.056Z,8.28
2019-05-06T17:33:19.689Z,4.10
2019-05-06T17:40:45.580Z,6.10
2019-05-06T17:46:02.349Z,4.58
2019-05-06T17:51:13.672Z,3.92
2019-05-06T17:56:22.262Z,4.30
2019-05-06T18:01:35.261Z,6.05
2019-05-06T18:06:42.679Z,8.10
2019-05-06T18:11:58.431Z,10.80
2019-05-06T18:22:04.557Z,5.92
2019-05-06T18:27:13.055Z,8.45
2019-05-06T18:37:26.921Z,8.90
2019-05-06T18:42:34.265Z,5.78
2019-05-06T18:52:49.462Z,7.70
2019-05-06T18:57:56.892Z,8.48
2019-05-06T19:13:36.249Z,2.92
2019-05-06T19:18:43.599Z,1.90
2019-05-06T19:23:51.927Z,3.35
2019-05-06T19:28:59.443Z,1.92
2019-05-06T19:34:07.766Z,3.42
2019-05-06T19:39:14.585Z,2.15
2019-05-06T19:44:22.039Z,3.35
2019-05-06T19:49:29.532Z,3.50
2019-05-06T19:54:36.468Z,3.10
2019-05-06T19:59:43.474Z,2.85
2019-05-06T20:04:54.538Z,2.90
2019-05-06T20:10:14.257Z,4.30
2019-05-06T20:15:42.612Z,2.42
2019-05-06T20:20:49.665Z,3.25
2019-05-06T20:25:56.571Z,2.70
2019-05-06T20:31:04.452Z,3.80
2019-05-06T20:36:12.618Z,4.28
2019-05-06T20:41:19.575Z,2.90
2019-05-06T20:46:26.539Z,4.33
2019-05-06T20:51:33.504Z,4.28
2019-05-06T20:56:42.159Z,15.90
2019-05-06T21:06:57.613Z,3.70
2019-05-06T21:12:04.479Z,4.47
2019-05-06T21:17:13.268Z,4.03
2019-05-06T21:27:30.270Z,3.80
2019-05-06T21:32:37.450Z,4.62
2019-05-06T21:37:44.874Z,5.35
2019-05-06T21:42:51.584Z,7.00
2019-05-06T21:48:02.583Z,6.28
2019-05-06T21:53:12.211Z,5.80
2019-05-06T21:58:17.450Z,3.77
2019-05-06T22:03:24.533Z,4.58
2019-05-06T22:08:32.875Z,4.05
2019-05-06T22:13:39.772Z,5.47
2019-05-06T22:18:47.067Z,4.00
2019-05-06T22:23:56.255Z,4.35
2019-05-06T22:29:03.501Z,5.42
2019-05-06T22:34:10.493Z,5.20
2019-05-06T22:39:17.468Z,5.30
2019-05-06T22:44:24.461Z,6.37
2019-05-06T22:49:32.104Z,3.20
2019-05-06T22:59:45.426Z,4.90
2019-05-06T23:04:55.748Z,6.47
2019-05-06T23:10:02.564Z,5.83
2019-05-06T23:15:12.107Z,4.20
2019-05-06T23:20:19.064Z,5.20
2019-05-06T23:25:26.375Z,3.87
2019-05-06T23:35:43.706Z,6.47
2019-05-06T23:41:45.266Z,6.37
2019-05-06T23:58:17.241Z,4.58
